LAO weather

Laoag International Airport
Laoag City, Ilocos Norte Province, Philippines

Public forecast

Using degrees Celsius for public forecast. Weather courtesy of forecast.io.

Current aviation weather report (METAR) for Laoag International Airport

Retrieved 2019/11/16 22:00 UTC (40 minutes ago):

RPLI 162200Z 07004KT 6000 FEW018 25/23 Q1010 NOSIG RMK A2983

Aviation forecast (TAF) for Laoag International Airport

Retrieved 2019/11/16 18:00 UTC (5 hours ago):

TAF RPLI 161700Z 1618/1718 02010KT 9999 FEW018 SCT290 TEMPO 1618/1624 04015KT FEW018 BKN290 TEMPO 1706/1712 8000 -SHRA SCT018 BKN100